sensor_id;sensor_type;location;lat;lon;timestamp;pressure;altitude;pressure_sealevel;temperature;humidity
44079;BME280;29744;49.078;12.878;2023-03-19T00:03:54;96166.56;;;14.87;33.58
44079;BME280;29744;49.078;12.878;2023-03-19T00:08:55;96165.31;;;14.84;33.90
44079;BME280;29744;49.078;12.878;2023-03-19T00:13:55;96164.06;;;14.81;33.62
44079;BME280;29744;49.078;12.878;2023-03-19T00:18:55;96165.19;;;14.80;33.95
44079;BME280;29744;49.078;12.878;2023-03-19T00:23:57;96166.28;;;14.79;34.10
44079;BME280;29744;49.078;12.878;2023-03-19T00:29:00;96156.94;;;14.77;33.77
44079;BME280;29744;49.078;12.878;2023-03-19T00:34:02;96158.88;;;14.76;33.96
44079;BME280;29744;49.078;12.878;2023-03-19T00:39:03;96153.00;;;14.74;34.17
44079;BME280;29744;49.078;12.878;2023-03-19T00:44:03;96151.44;;;14.73;33.88
44079;BME280;29744;49.078;12.878;2023-03-19T00:49:05;96151.75;;;14.72;34.26
44079;BME280;29744;49.078;12.878;2023-03-19T00:54:05;96150.50;;;14.69;34.23
44079;BME280;29744;49.078;12.878;2023-03-19T00:59:06;96146.22;;;14.68;33.75
44079;BME280;29744;49.078;12.878;2023-03-19T01:04:06;96144.97;;;14.66;34.22
44079;BME280;29744;49.078;12.878;2023-03-19T01:09:07;96134.53;;;14.64;34.01
44079;BME280;29744;49.078;12.878;2023-03-19T01:14:07;96138.34;;;14.63;34.09
44079;BME280;29744;49.078;12.878;2023-03-19T01:19:08;96126.31;;;14.61;34.12
44079;BME280;29744;49.078;12.878;2023-03-19T01:24:08;96136.31;;;14.60;33.80
44079;BME280;29744;49.078;12.878;2023-03-19T01:29:09;96142.34;;;14.57;34.17
44079;BME280;29744;49.078;12.878;2023-03-19T01:34:10;96135.38;;;14.56;33.93
44079;BME280;29744;49.078;12.878;2023-03-19T01:39:10;96138.09;;;14.56;34.09
44079;BME280;29744;49.078;12.878;2023-03-19T01:44:23;96137.94;;;14.53;33.90
44079;BME280;29744;49.078;12.878;2023-03-19T01:49:26;96145.25;;;14.52;33.95
44079;BME280;29744;49.078;12.878;2023-03-19T01:54:29;96141.78;;;14.52;34.17
44079;BME280;29744;49.078;12.878;2023-03-19T01:59:34;96138.63;;;14.49;34.39
44079;BME280;29744;49.078;12.878;2023-03-19T02:04:37;96138.94;;;14.48;34.21
44079;BME280;29744;49.078;12.878;2023-03-19T02:09:38;96141.97;;;14.46;34.11
44079;BME280;29744;49.078;12.878;2023-03-19T02:14:40;96135.00;;;14.45;34.00
44079;BME280;29744;49.078;12.878;2023-03-19T02:25:02;96145.66;;;14.42;34.35
44079;BME280;29744;49.078;12.878;2023-03-19T02:35:23;96142.84;;;14.38;34.37
44079;BME280;29744;49.078;12.878;2023-03-19T02:40:28;96146.66;;;14.37;34.43
44079;BME280;29744;49.078;12.878;2023-03-19T02:45:30;96150.47;;;14.36;34.07
44079;BME280;29744;49.078;12.878;2023-03-19T02:50:31;96148.09;;;14.35;34.22
44079;BME280;29744;49.078;12.878;2023-03-19T02:55:31;96160.78;;;14.34;34.58
44079;BME280;29744;49.078;12.878;2023-03-19T03:00:31;96163.81;;;14.33;34.58
44079;BME280;29744;49.078;12.878;2023-03-19T03:05:33;96156.84;;;14.32;34.20
44079;BME280;29744;49.078;12.878;2023-03-19T03:10:33;96173.03;;;14.32;34.39
44079;BME280;29744;49.078;12.878;2023-03-19T03:15:34;96168.75;;;14.31;34.63
44079;BME280;29744;49.078;12.878;2023-03-19T03:20:34;96164.47;;;14.30;34.57
44079;BME280;29744;49.078;12.878;2023-03-19T03:25:35;96164.00;;;14.28;34.14
44079;BME280;29744;49.078;12.878;2023-03-19T03:30:36;96166.72;;;14.28;34.59
44079;BME280;29744;49.078;12.878;2023-03-19T03:35:37;96158.16;;;14.26;34.60
44079;BME280;29744;49.078;12.878;2023-03-19T03:40:37;96145.78;;;14.25;34.42
44079;BME280;29744;49.078;12.878;2023-03-19T03:45:37;96155.78;;;14.24;34.20
44079;BME280;29744;49.078;12.878;2023-03-19T03:50:38;96156.91;;;14.23;34.41
44079;BME280;29744;49.078;12.878;2023-03-19T03:55:39;96161.50;;;14.23;34.13
44079;BME280;29744;49.078;12.878;2023-03-19T04:00:40;96163.41;;;14.22;34.62
44079;BME280;29744;49.078;12.878;2023-03-19T04:05:40;96179.91;;;14.21;34.37
44079;BME280;29744;49.078;12.878;2023-03-19T04:10:41;96189.09;;;14.19;34.50
44079;BME280;29744;49.078;12.878;2023-03-19T04:15:42;96196.41;;;14.19;34.83
44079;BME280;29744;49.078;12.878;2023-03-19T04:20:43;96194.81;;;14.18;34.51
44079;BME280;29744;49.078;12.878;2023-03-19T04:25:43;96195.16;;;14.16;34.47
44079;BME280;29744;49.078;12.878;2023-03-19T04:30:43;96178.97;;;14.16;34.43
44079;BME280;29744;49.078;12.878;2023-03-19T04:35:43;96177.38;;;14.15;34.47
44079;BME280;29744;49.078;12.878;2023-03-19T04:40:44;96182.78;;;14.15;34.27
44079;BME280;29744;49.078;12.878;2023-03-19T04:45:45;96180.88;;;14.16;34.47
44079;BME280;29744;49.078;12.878;2023-03-19T04:50:46;96174.84;;;14.19;34.57
44079;BME280;29744;49.078;12.878;2023-03-19T04:55:46;96188.94;;;14.25;34.55
44079;BME280;29744;49.078;12.878;2023-03-19T05:00:47;96189.22;;;14.32;34.59
44079;BME280;29744;49.078;12.878;2023-03-19T05:05:48;96191.53;;;14.42;34.48
44079;BME280;29744;49.078;12.878;2023-03-19T05:10:48;96197.31;;;14.53;34.57
44079;BME280;29744;49.078;12.878;2023-03-19T05:15:51;96198.19;;;14.65;34.63
44079;BME280;29744;49.078;12.878;2023-03-19T05:20:52;96204.75;;;14.76;34.47
44079;BME280;29744;49.078;12.878;2023-03-19T05:25:53;96206.38;;;14.90;34.10
44079;BME280;29744;49.078;12.878;2023-03-19T05:30:54;96218.84;;;15.03;33.96
44079;BME280;29744;49.078;12.878;2023-03-19T05:35:54;96216.97;;;15.16;33.78
44079;BME280;29744;49.078;12.878;2023-03-19T05:40:54;96220.50;;;15.28;33.93
44079;BME280;29744;49.078;12.878;2023-03-19T05:45:55;96221.34;;;15.41;33.95
44079;BME280;29744;49.078;12.878;2023-03-19T05:50:55;96221.38;;;15.53;33.70
44079;BME280;29744;49.078;12.878;2023-03-19T05:55:56;96220.59;;;15.65;33.36
44079;BME280;29744;49.078;12.878;2023-03-19T06:00:56;96229.50;;;15.77;33.42
44079;BME280;29744;49.078;12.878;2023-03-19T06:05:56;96236.41;;;15.87;33.56
44079;BME280;29744;49.078;12.878;2023-03-19T06:10:57;96250.63;;;15.96;33.41
44079;BME280;29744;49.078;12.878;2023-03-19T06:15:57;96248.16;;;16.03;33.32
44079;BME280;29744;49.078;12.878;2023-03-19T06:20:57;96264.94;;;16.09;33.33
44079;BME280;29744;49.078;12.878;2023-03-19T06:25:57;96262.34;;;16.13;33.12
44079;BME280;29744;49.078;12.878;2023-03-19T06:30:58;96268.66;;;16.17;33.26
44079;BME280;29744;49.078;12.878;2023-03-19T06:35:58;96271.03;;;16.18;33.02
44079;BME280;29744;49.078;12.878;2023-03-19T06:40:58;96288.06;;;16.19;32.89
44079;BME280;29744;49.078;12.878;2023-03-19T06:45:59;96287.72;;;16.20;32.89
44079;BME280;29744;49.078;12.878;2023-03-19T06:50:59;96288.84;;;16.19;32.72
44079;BME280;29744;49.078;12.878;2023-03-19T06:56:00;96288.06;;;16.19;33.33
44079;BME280;29744;49.078;12.878;2023-03-19T07:01:01;96301.59;;;16.19;33.33
44079;BME280;29744;49.078;12.878;2023-03-19T07:06:01;96305.41;;;16.18;32.75
44079;BME280;29744;49.078;12.878;2023-03-19T07:11:04;96315.78;;;16.16;33.05
44079;BME280;29744;49.078;12.878;2023-03-19T07:16:05;96319.63;;;16.15;33.17
44079;BME280;29744;49.078;12.878;2023-03-19T07:21:06;96328.06;;;16.13;32.92
44079;BME280;29744;49.078;12.878;2023-03-19T07:26:06;96324.91;;;16.11;32.96
44079;BME280;29744;49.078;12.878;2023-03-19T07:31:06;96337.97;;;16.09;33.04
44079;BME280;29744;49.078;12.878;2023-03-19T07:36:07;96325.59;;;16.08;33.05
44079;BME280;29744;49.078;12.878;2023-03-19T07:41:07;96328.28;;;16.08;33.13
44079;BME280;29744;49.078;12.878;2023-03-19T07:46:07;96341.03;;;16.07;33.34
44079;BME280;29744;49.078;12.878;2023-03-19T07:51:08;96350.72;;;16.08;32.98
44079;BME280;29744;49.078;12.878;2023-03-19T07:56:08;96351.19;;;16.10;33.15
44079;BME280;29744;49.078;12.878;2023-03-19T08:01:09;96354.34;;;16.13;33.02
44079;BME280;29744;49.078;12.878;2023-03-19T08:06:09;96341.25;;;16.15;32.93
44079;BME280;29744;49.078;12.878;2023-03-19T08:11:09;96340.94;;;16.16;32.81
44079;BME280;29744;49.078;12.878;2023-03-19T08:16:10;96342.50;;;16.17;32.85
44079;BME280;29744;49.078;12.878;2023-03-19T08:21:11;96340.59;;;16.18;33.17
44079;BME280;29744;49.078;12.878;2023-03-19T08:26:11;96349.16;;;16.20;32.59
44079;BME280;29744;49.078;12.878;2023-03-19T08:31:12;96334.84;;;16.19;32.80
44079;BME280;29744;49.078;12.878;2023-03-19T08:36:13;96335.63;;;16.20;32.76
44079;BME280;29744;49.078;12.878;2023-03-19T08:41:13;96334.06;;;16.19;32.67
44079;BME280;29744;49.078;12.878;2023-03-19T08:46:14;96331.34;;;16.19;33.15
44079;BME280;29744;49.078;12.878;2023-03-19T08:51:15;96331.69;;;16.17;32.80
44079;BME280;29744;49.078;12.878;2023-03-19T08:56:15;96337.09;;;16.17;32.60
44079;BME280;29744;49.078;12.878;2023-03-19T09:01:16;96333.16;;;16.15;33.13
44079;BME280;29744;49.078;12.878;2023-03-19T09:06:16;96328.88;;;16.14;32.61
44079;BME280;29744;49.078;12.878;2023-03-19T09:11:16;96340.81;;;16.13;33.13
44079;BME280;29744;49.078;12.878;2023-03-19T09:16:17;96343.84;;;16.11;33.00
44079;BME280;29744;49.078;12.878;2023-03-19T09:21:17;96350.72;;;16.08;33.09
44079;BME280;29744;49.078;12.878;2023-03-19T09:26:17;96355.34;;;16.08;32.84
44079;BME280;29744;49.078;12.878;2023-03-19T09:31:18;96352.53;;;16.04;33.24
44079;BME280;29744;49.078;12.878;2023-03-19T09:36:18;96333.91;;;16.03;33.02
44079;BME280;29744;49.078;12.878;2023-03-19T09:46:31;96334.94;;;15.98;32.99
44079;BME280;29744;49.078;12.878;2023-03-19T09:51:42;96335.59;;;15.95;32.80
44079;BME280;29744;49.078;12.878;2023-03-19T09:56:44;96354.06;;;15.93;33.09
44079;BME280;29744;49.078;12.878;2023-03-19T10:01:51;96357.09;;;15.92;33.30
44079;BME280;29744;49.078;12.878;2023-03-19T10:06:59;96351.56;;;15.88;33.16
44079;BME280;29744;49.078;12.878;2023-03-19T10:12:24;96355.28;;;15.84;32.95
44079;BME280;29744;49.078;12.878;2023-03-19T10:17:34;96361.81;;;15.83;33.45
44079;BME280;29744;49.078;12.878;2023-03-19T10:22:40;96360.56;;;15.80;33.35
44079;BME280;29744;49.078;12.878;2023-03-19T10:27:45;96347.69;;;15.77;33.25
44079;BME280;29744;49.078;12.878;2023-03-19T10:38:22;96357.59;;;15.73;33.18
44079;BME280;29744;49.078;12.878;2023-03-19T10:43:24;96360.28;;;15.73;33.37
44079;BME280;29744;49.078;12.878;2023-03-19T10:48:26;96355.53;;;15.70;33.23
44079;BME280;29744;49.078;12.878;2023-03-19T10:53:33;96363.53;;;15.66;33.15
44079;BME280;29744;49.078;12.878;2023-03-19T10:58:35;96373.88;;;15.64;33.02
44079;BME280;29744;49.078;12.878;2023-03-19T11:08:55;96372.19;;;15.60;33.63
44079;BME280;29744;49.078;12.878;2023-03-19T11:13:56;96376.00;;;15.59;33.34
44079;BME280;29744;49.078;12.878;2023-03-19T11:18:56;96369.34;;;15.56;33.68
44079;BME280;29744;49.078;12.878;2023-03-19T11:24:01;96365.84;;;15.56;33.36
44079;BME280;29744;49.078;12.878;2023-03-19T11:29:03;96368.09;;;15.54;33.37
44079;BME280;29744;49.078;12.878;2023-03-19T11:34:22;96375.75;;;15.52;33.38
44079;BME280;29744;49.078;12.878;2023-03-19T11:39:50;96368.31;;;15.49;33.47
44079;BME280;29744;49.078;12.878;2023-03-19T11:50:26;96367.38;;;15.44;33.21
44079;BME280;29744;49.078;12.878;2023-03-19T12:00:53;96357.56;;;15.40;33.37
44079;BME280;29744;49.078;12.878;2023-03-19T12:05:59;96358.75;;;15.30;33.40
44079;BME280;29744;49.078;12.878;2023-03-19T12:27:06;96367.31;;;15.32;33.87
44079;BME280;29744;49.078;12.878;2023-03-19T12:37:31;96374.50;;;15.28;33.44
44079;BME280;29744;49.078;12.878;2023-03-19T12:42:37;96365.94;;;15.26;33.79
44079;BME280;29744;49.078;12.878;2023-03-19T12:47:40;96363.91;;;15.23;33.63
44079;BME280;29744;49.078;12.878;2023-03-19T12:52:49;96362.31;;;15.22;33.74
44079;BME280;29744;49.078;12.878;2023-03-19T12:57:53;96359.94;;;15.21;33.79
44079;BME280;29744;49.078;12.878;2023-03-19T13:13:35;96353.50;;;15.13;33.91
44079;BME280;29744;49.078;12.878;2023-03-19T13:18:46;96348.41;;;15.11;33.75
44079;BME280;29744;49.078;12.878;2023-03-19T13:29:17;96350.97;;;15.08;33.93
44079;BME280;29744;49.078;12.878;2023-03-19T13:34:24;96355.59;;;15.07;33.98
44079;BME280;29744;49.078;12.878;2023-03-19T13:39:28;96346.25;;;15.05;33.59
44079;BME280;29744;49.078;12.878;2023-03-19T13:49:34;96349.56;;;15.02;33.60
44079;BME280;29744;49.078;12.878;2023-03-19T13:54:38;96342.59;;;15.01;34.06
44079;BME280;29744;49.078;12.878;2023-03-19T13:59:41;96345.59;;;14.99;34.03
44079;BME280;29744;49.078;12.878;2023-03-19T14:04:49;96347.84;;;14.97;34.22
44079;BME280;29744;49.078;12.878;2023-03-19T14:15:00;96330.00;;;14.84;34.17
44079;BME280;29744;49.078;12.878;2023-03-19T14:25:17;96322.03;;;14.88;33.82
44079;BME280;29744;49.078;12.878;2023-03-19T14:30:33;96321.56;;;14.86;34.17
44079;BME280;29744;49.078;12.878;2023-03-19T14:35:40;96318.88;;;14.86;34.41
44079;BME280;29744;49.078;12.878;2023-03-19T14:40:46;96314.25;;;14.86;34.02
44079;BME280;29744;49.078;12.878;2023-03-19T14:45:57;96318.22;;;14.89;34.11
44079;BME280;29744;49.078;12.878;2023-03-19T14:51:11;96312.16;;;14.92;33.99
44079;BME280;29744;49.078;12.878;2023-03-19T14:56:24;96305.75;;;14.96;34.07
44079;BME280;29744;49.078;12.878;2023-03-19T15:01:25;96306.34;;;15.02;34.31
44079;BME280;29744;49.078;12.878;2023-03-19T15:06:31;96310.47;;;15.08;33.95
44079;BME280;29744;49.078;12.878;2023-03-19T15:12:12;96308.03;;;15.15;33.70
44079;BME280;29744;49.078;12.878;2023-03-19T15:17:23;96311.31;;;15.21;34.03
44079;BME280;29744;49.078;12.878;2023-03-19T15:27:27;96311.50;;;15.36;33.96
44079;BME280;29744;49.078;12.878;2023-03-19T15:32:37;96320.97;;;15.42;33.67
44079;BME280;29744;49.078;12.878;2023-03-19T15:37:43;96315.84;;;15.50;34.12
44079;BME280;29744;49.078;12.878;2023-03-19T15:42:47;96319.56;;;15.57;33.84
44079;BME280;29744;49.078;12.878;2023-03-19T15:48:36;96311.59;;;15.61;33.57
44079;BME280;29744;49.078;12.878;2023-03-19T15:53:41;96306.44;;;15.68;33.45
44079;BME280;29744;49.078;12.878;2023-03-19T15:58:45;96311.63;;;15.73;33.84
44079;BME280;29744;49.078;12.878;2023-03-19T16:03:59;96310.97;;;15.76;33.42
44079;BME280;29744;49.078;12.878;2023-03-19T16:09:21;96315.69;;;15.79;33.75
44079;BME280;29744;49.078;12.878;2023-03-19T16:14:38;96311.91;;;15.80;33.42
44079;BME280;29744;49.078;12.878;2023-03-19T16:24:50;96320.91;;;15.84;33.54
44079;BME280;29744;49.078;12.878;2023-03-19T16:29:58;96325.53;;;15.84;33.37
44079;BME280;29744;49.078;12.878;2023-03-19T16:35:13;96327.44;;;15.83;33.83
44079;BME280;29744;49.078;12.878;2023-03-19T16:45:30;96339.41;;;15.82;33.28
44079;BME280;29744;49.078;12.878;2023-03-19T16:50:40;96338.94;;;15.80;33.45
44079;BME280;29744;49.078;12.878;2023-03-19T16:55:42;96342.72;;;15.79;33.52
44079;BME280;29744;49.078;12.878;2023-03-19T17:00:43;96337.66;;;15.77;33.59
44079;BME280;29744;49.078;12.878;2023-03-19T17:05:45;96343.41;;;15.76;33.42
44079;BME280;29744;49.078;12.878;2023-03-19T17:10:48;96339.13;;;15.75;33.65
44079;BME280;29744;49.078;12.878;2023-03-19T17:15:50;96341.38;;;15.73;33.71
44079;BME280;29744;49.078;12.878;2023-03-19T17:20:56;96341.69;;;15.71;33.59
44079;BME280;29744;49.078;12.878;2023-03-19T17:25:57;96345.53;;;15.70;33.52
44079;BME280;29744;49.078;12.878;2023-03-19T17:30:58;96348.56;;;15.69;33.84
44079;BME280;29744;49.078;12.878;2023-03-19T17:35:58;96353.50;;;15.67;33.52
44079;BME280;29744;49.078;12.878;2023-03-19T17:40:58;96348.44;;;15.65;33.40
44079;BME280;29744;49.078;12.878;2023-03-19T17:45:59;96365.78;;;15.64;33.69
44079;BME280;29744;49.078;12.878;2023-03-19T17:51:00;96365.00;;;15.64;33.61
44079;BME280;29744;49.078;12.878;2023-03-19T17:56:01;96364.53;;;15.62;33.55
44079;BME280;29744;49.078;12.878;2023-03-19T18:01:01;96367.22;;;15.62;33.66
44079;BME280;29744;49.078;12.878;2023-03-19T18:06:02;96361.81;;;15.62;33.51
44079;BME280;29744;49.078;12.878;2023-03-19T18:11:05;96369.94;;;15.62;33.77
44079;BME280;29744;49.078;12.878;2023-03-19T18:16:27;96362.16;;;15.60;33.47
44079;BME280;29744;49.078;12.878;2023-03-19T18:21:29;96375.34;;;15.62;33.43
44079;BME280;29744;49.078;12.878;2023-03-19T18:26:29;96369.16;;;15.61;33.51
44079;BME280;29744;49.078;12.878;2023-03-19T18:31:30;96378.03;;;15.62;33.90
44079;BME280;29744;49.078;12.878;2023-03-19T18:36:31;96388.84;;;15.62;33.70
44079;BME280;29744;49.078;12.878;2023-03-19T18:41:32;96396.97;;;15.62;33.88
44079;BME280;29744;49.078;12.878;2023-03-19T18:46:33;96407.78;;;15.62;33.88
44079;BME280;29744;49.078;12.878;2023-03-19T18:51:34;96402.72;;;15.60;33.96
44079;BME280;29744;49.078;12.878;2023-03-19T18:56:35;96410.81;;;15.60;33.38
44079;BME280;29744;49.078;12.878;2023-03-19T19:01:35;96418.47;;;15.58;33.71
44079;BME280;29744;49.078;12.878;2023-03-19T19:06:35;96424.19;;;15.57;33.41
44079;BME280;29744;49.078;12.878;2023-03-19T19:11:39;96427.69;;;15.57;33.63
44079;BME280;29744;49.078;12.878;2023-03-19T19:16:40;96431.84;;;15.55;33.72
44079;BME280;29744;49.078;12.878;2023-03-19T19:21:41;96444.56;;;15.54;33.92
44079;BME280;29744;49.078;12.878;2023-03-19T19:26:45;96443.31;;;15.52;33.72
44079;BME280;29744;49.078;12.878;2023-03-19T19:31:46;96449.84;;;15.51;33.84
44079;BME280;29744;49.078;12.878;2023-03-19T19:36:46;96452.09;;;15.49;33.80
44079;BME280;29744;49.078;12.878;2023-03-19T19:41:47;96455.91;;;15.48;33.46
44079;BME280;29744;49.078;12.878;2023-03-19T19:46:47;96454.66;;;15.45;33.47
44079;BME280;29744;49.078;12.878;2023-03-19T19:51:52;96452.28;;;15.43;33.94
44079;BME280;29744;49.078;12.878;2023-03-19T19:56:52;96457.22;;;15.41;33.65
44079;BME280;29744;49.078;12.878;2023-03-19T20:01:52;96466.44;;;15.40;33.82
44079;BME280;29744;49.078;12.878;2023-03-19T20:06:53;96463.28;;;15.38;33.56
44079;BME280;29744;49.078;12.878;2023-03-19T20:11:53;96469.00;;;15.37;33.94
44079;BME280;29744;49.078;12.878;2023-03-19T20:16:53;96463.94;;;15.35;33.59
44079;BME280;29744;49.078;12.878;2023-03-19T20:21:54;96473.16;;;15.34;33.75
44079;BME280;29744;49.078;12.878;2023-03-19T20:26:55;96475.41;;;15.32;33.59
44079;BME280;29744;49.078;12.878;2023-03-19T20:31:56;96476.84;;;15.30;33.55
44079;BME280;29744;49.078;12.878;2023-03-19T20:36:56;96475.25;;;15.29;33.71
44079;BME280;29744;49.078;12.878;2023-03-19T20:41:56;96474.00;;;15.26;33.89
44079;BME280;29744;49.078;12.878;2023-03-19T20:46:57;96485.94;;;15.25;33.59
44079;BME280;29744;49.078;12.878;2023-03-19T20:51:58;96486.59;;;15.22;33.65
44079;BME280;29744;49.078;12.878;2023-03-19T20:56:58;96492.63;;;15.19;34.09
44079;BME280;29744;49.078;12.878;2023-03-19T21:01:58;96492.97;;;15.18;34.09
44079;BME280;29744;49.078;12.878;2023-03-19T21:06:59;96500.28;;;15.17;33.71
44079;BME280;29744;49.078;12.878;2023-03-19T21:11:59;96500.13;;;15.13;34.27
44079;BME280;29744;49.078;12.878;2023-03-19T21:17:00;96500.47;;;15.12;33.94
44079;BME280;29744;49.078;12.878;2023-03-19T21:22:00;96500.78;;;15.10;33.75
44079;BME280;29744;49.078;12.878;2023-03-19T21:27:02;96507.63;;;15.08;34.09
44079;BME280;29744;49.078;12.878;2023-03-19T21:32:07;96500.66;;;15.07;34.14
44079;BME280;29744;49.078;12.878;2023-03-19T21:37:09;96489.38;;;15.05;33.94
44079;BME280;29744;49.078;12.878;2023-03-19T21:42:16;96497.00;;;15.03;34.09
44079;BME280;29744;49.078;12.878;2023-03-19T21:47:19;96493.81;;;15.01;34.15
44079;BME280;29744;49.078;12.878;2023-03-19T21:52:24;96495.25;;;14.98;34.07
44079;BME280;29744;49.078;12.878;2023-03-19T21:57:24;96504.47;;;14.97;34.43
44079;BME280;29744;49.078;12.878;2023-03-19T22:07:25;96501.97;;;14.92;34.26
44079;BME280;29744;49.078;12.878;2023-03-19T22:12:27;96497.66;;;14.91;34.46
44079;BME280;29744;49.078;12.878;2023-03-19T22:17:28;96503.41;;;14.90;34.30
44079;BME280;29744;49.078;12.878;2023-03-19T22:22:29;96496.41;;;14.89;34.39
44079;BME280;29744;49.078;12.878;2023-03-19T22:27:31;96501.34;;;14.87;34.21
44079;BME280;29744;49.078;12.878;2023-03-19T22:32:31;96506.28;;;14.85;34.27
44079;BME280;29744;49.078;12.878;2023-03-19T22:37:31;96505.00;;;14.82;34.51
44079;BME280;29744;49.078;12.878;2023-03-19T22:42:32;96509.63;;;14.81;34.48
44079;BME280;29744;49.078;12.878;2023-03-19T22:47:34;96507.25;;;14.80;34.58
44079;BME280;29744;49.078;12.878;2023-03-19T22:52:36;96515.66;;;14.78;34.28
44079;BME280;29744;49.078;12.878;2023-03-19T22:57:36;96511.38;;;14.77;34.26
44079;BME280;29744;49.078;12.878;2023-03-19T23:02:37;96519.00;;;14.75;34.13
44079;BME280;29744;49.078;12.878;2023-03-19T23:07:38;96515.84;;;14.73;34.30
44079;BME280;29744;49.078;12.878;2023-03-19T23:12:38;96522.34;;;14.72;34.42
44079;BME280;29744;49.078;12.878;2023-03-19T23:17:39;96517.28;;;14.71;34.12
44079;BME280;29744;49.078;12.878;2023-03-19T23:22:41;96516.81;;;14.69;34.35
44079;BME280;29744;49.078;12.878;2023-03-19T23:27:42;96517.13;;;14.67;34.54
44079;BME280;29744;49.078;12.878;2023-03-19T23:32:43;96523.66;;;14.66;34.35
44079;BME280;29744;49.078;12.878;2023-03-19T23:37:44;96522.06;;;14.65;34.11
44079;BME280;29744;49.078;12.878;2023-03-19T23:42:48;96516.19;;;14.63;34.44
44079;BME280;29744;49.078;12.878;2023-03-19T23:47:48;96515.72;;;14.61;34.57
44079;BME280;29744;49.078;12.878;2023-03-19T23:52:49;96524.94;;;14.60;34.43
44079;BME280;29744;49.078;12.878;2023-03-19T23:57:50;96525.25;;;14.59;34.41
